sensor_id;sensor_type;location;lat;lon;timestamp;temperature;humidity
33460;DHT22;19795;53.160;6.612;2024-03-08T06:14:09;-0.50;99.90
33460;DHT22;19795;53.160;6.612;2024-03-08T06:16:36;-0.50;99.90
33460;DHT22;19795;53.160;6.612;2024-03-08T06:19:05;-0.10;99.90
33460;DHT22;19795;53.160;6.612;2024-03-08T06:21:31;-0.50;99.90
33460;DHT22;19795;53.160;6.612;2024-03-08T06:23:57;0.00;99.90
33460;DHT22;19795;53.160;6.612;2024-03-08T06:26:24;-0.50;99.90
33460;DHT22;19795;53.160;6.612;2024-03-08T06:28:54;-0.50;99.90
33460;DHT22;19795;53.160;6.612;2024-03-08T06:31:20;-0.40;99.90
33460;DHT22;19795;53.160;6.612;2024-03-08T06:33:46;-0.40;99.90
33460;DHT22;19795;53.160;6.612;2024-03-08T06:36:16;-0.30;99.90
33460;DHT22;19795;53.160;6.612;2024-03-08T06:38:45;-0.30;99.90
33460;DHT22;19795;53.160;6.612;2024-03-08T06:41:11;-0.30;99.90
33460;DHT22;19795;53.160;6.612;2024-03-08T06:43:47;-0.20;99.90
33460;DHT22;19795;53.160;6.612;2024-03-08T06:46:17;-0.10;99.90
33460;DHT22;19795;53.160;6.612;2024-03-08T06:48:43;-0.10;99.90
33460;DHT22;19795;53.160;6.612;2024-03-08T06:51:11;-0.10;99.90
33460;DHT22;19795;53.160;6.612;2024-03-08T06:53:36;0.00;99.90
33460;DHT22;19795;53.160;6.612;2024-03-08T06:56:04;0.30;99.90
33460;DHT22;19795;53.160;6.612;2024-03-08T06:58:29;0.00;99.90
33460;DHT22;19795;53.160;6.612;2024-03-08T07:00:55;0.30;99.90
33460;DHT22;19795;53.160;6.612;2024-03-08T07:03:26;0.20;99.90
33460;DHT22;19795;53.160;6.612;2024-03-08T07:05:55;0.20;99.90
33460;DHT22;19795;53.160;6.612;2024-03-08T07:08:22;0.30;99.90
33460;DHT22;19795;53.160;6.612;2024-03-08T07:10:48;0.40;99.90
33460;DHT22;19795;53.160;6.612;2024-03-08T07:13:15;0.40;99.90
33460;DHT22;19795;53.160;6.612;2024-03-08T07:15:43;0.50;99.90
33460;DHT22;19795;53.160;6.612;2024-03-08T07:18:08;0.60;99.90
33460;DHT22;19795;53.160;6.612;2024-03-08T07:20:34;0.60;99.90
33460;DHT22;19795;53.160;6.612;2024-03-08T07:23:02;0.70;99.90
33460;DHT22;19795;53.160;6.612;2024-03-08T07:25:29;0.80;99.90
33460;DHT22;19795;53.160;6.612;2024-03-08T07:27:55;0.80;99.90
33460;DHT22;19795;53.160;6.612;2024-03-08T07:30:26;1.00;99.90
33460;DHT22;19795;53.160;6.612;2024-03-08T07:33:10;1.00;99.90
33460;DHT22;19795;53.160;6.612;2024-03-08T07:35:39;1.10;99.90
33460;DHT22;19795;53.160;6.612;2024-03-08T07:38:09;1.20;99.90
33460;DHT22;19795;53.160;6.612;2024-03-08T07:40:39;1.30;99.90
33460;DHT22;19795;53.160;6.612;2024-03-08T07:43:09;1.40;99.90
33460;DHT22;19795;53.160;6.612;2024-03-08T07:45:39;1.50;99.90
33460;DHT22;19795;53.160;6.612;2024-03-08T07:48:06;1.60;99.90
33460;DHT22;19795;53.160;6.612;2024-03-08T07:50:39;1.70;99.90
33460;DHT22;19795;53.160;6.612;2024-03-08T07:53:05;1.70;99.90
33460;DHT22;19795;53.160;6.612;2024-03-08T07:55:37;1.80;99.90
33460;DHT22;19795;53.160;6.612;2024-03-08T07:58:03;2.00;99.90
33460;DHT22;19795;53.160;6.612;2024-03-08T08:00:29;2.00;99.90
33460;DHT22;19795;53.160;6.612;2024-03-08T08:02:56;2.10;99.90
33460;DHT22;19795;53.160;6.612;2024-03-08T08:05:22;2.20;99.90
33460;DHT22;19795;53.160;6.612;2024-03-08T08:07:48;2.30;99.90
33460;DHT22;19795;53.160;6.612;2024-03-08T08:10:15;2.40;99.90
33460;DHT22;19795;53.160;6.612;2024-03-08T08:12:51;2.40;99.90
33460;DHT22;19795;53.160;6.612;2024-03-08T08:15:20;2.40;99.90
33460;DHT22;19795;53.160;6.612;2024-03-08T08:17:46;2.50;99.90
33460;DHT22;19795;53.160;6.612;2024-03-08T08:20:12;2.50;99.90
33460;DHT22;19795;53.160;6.612;2024-03-08T08:22:41;2.50;99.90
33460;DHT22;19795;53.160;6.612;2024-03-08T08:25:09;2.60;99.90
33460;DHT22;19795;53.160;6.612;2024-03-08T08:27:38;2.60;99.90
33460;DHT22;19795;53.160;6.612;2024-03-08T08:30:05;2.80;99.90
33460;DHT22;19795;53.160;6.612;2024-03-08T08:32:34;3.10;99.90
33460;DHT22;19795;53.160;6.612;2024-03-08T08:35:02;3.50;99.90
33460;DHT22;19795;53.160;6.612;2024-03-08T08:37:27;3.50;99.90
33460;DHT22;19795;53.160;6.612;2024-03-08T08:39:54;3.50;99.90
33460;DHT22;19795;53.160;6.612;2024-03-08T08:42:20;3.70;99.90
33460;DHT22;19795;53.160;6.612;2024-03-08T08:44:45;4.10;99.90
33460;DHT22;19795;53.160;6.612;2024-03-08T08:47:11;4.40;99.90
33460;DHT22;19795;53.160;6.612;2024-03-08T08:49:38;4.50;99.90
33460;DHT22;19795;53.160;6.612;2024-03-08T08:52:04;4.70;99.90
33460;DHT22;19795;53.160;6.612;2024-03-08T08:54:30;4.70;99.90
33460;DHT22;19795;53.160;6.612;2024-03-08T08:56:56;4.90;99.90
33460;DHT22;19795;53.160;6.612;2024-03-08T08:59:22;4.90;99.90
33460;DHT22;19795;53.160;6.612;2024-03-08T09:01:50;5.00;99.90
33460;DHT22;19795;53.160;6.612;2024-03-08T09:04:19;5.00;99.90
33460;DHT22;19795;53.160;6.612;2024-03-08T09:06:44;5.10;99.90
33460;DHT22;19795;53.160;6.612;2024-03-08T09:09:10;4.90;99.90
33460;DHT22;19795;53.160;6.612;2024-03-08T09:11:39;4.80;99.90
33460;DHT22;19795;53.160;6.612;2024-03-08T09:14:08;4.70;99.90
33460;DHT22;19795;53.160;6.612;2024-03-08T09:16:34;4.70;99.90
33460;DHT22;19795;53.160;6.612;2024-03-08T09:19:00;4.60;99.90
33460;DHT22;19795;53.160;6.612;2024-03-08T09:21:25;4.70;99.90
33460;DHT22;19795;53.160;6.612;2024-03-08T09:23:53;4.80;99.90
33460;DHT22;19795;53.160;6.612;2024-03-08T09:26:19;4.90;99.90
33460;DHT22;19795;53.160;6.612;2024-03-08T09:28:45;5.10;99.90
33460;DHT22;19795;53.160;6.612;2024-03-08T09:31:11;5.00;99.90
33460;DHT22;19795;53.160;6.612;2024-03-08T09:33:37;5.00;99.90
33460;DHT22;19795;53.160;6.612;2024-03-08T09:36:05;5.20;99.90
33460;DHT22;19795;53.160;6.612;2024-03-08T09:38:33;5.00;99.90
33460;DHT22;19795;53.160;6.612;2024-03-08T09:41:00;5.20;99.90
33460;DHT22;19795;53.160;6.612;2024-03-08T09:43:27;5.30;99.90
33460;DHT22;19795;53.160;6.612;2024-03-08T09:45:53;5.30;99.90
33460;DHT22;19795;53.160;6.612;2024-03-08T09:48:21;5.30;99.90
33460;DHT22;19795;53.160;6.612;2024-03-08T09:50:47;5.40;99.90
33460;DHT22;19795;53.160;6.612;2024-03-08T09:53:13;5.40;99.90
33460;DHT22;19795;53.160;6.612;2024-03-08T09:55:39;5.50;99.90
33460;DHT22;19795;53.160;6.612;2024-03-08T09:58:08;5.50;99.90
33460;DHT22;19795;53.160;6.612;2024-03-08T10:00:53;5.70;99.90
33460;DHT22;19795;53.160;6.612;2024-03-08T10:03:20;6.00;99.90
33460;DHT22;19795;53.160;6.612;2024-03-08T10:05:45;5.90;99.70
33460;DHT22;19795;53.160;6.612;2024-03-08T10:08:12;5.70;99.90
33460;DHT22;19795;53.160;6.612;2024-03-08T10:10:38;5.50;99.90
33460;DHT22;19795;53.160;6.612;2024-03-08T10:13:08;5.40;99.90
33460;DHT22;19795;53.160;6.612;2024-03-08T10:15:34;5.50;99.90
33460;DHT22;19795;53.160;6.612;2024-03-08T10:18:00;5.60;99.90
33460;DHT22;19795;53.160;6.612;2024-03-08T10:20:29;5.80;99.90
33460;DHT22;19795;53.160;6.612;2024-03-08T10:22:59;5.80;99.90
33460;DHT22;19795;53.160;6.612;2024-03-08T10:25:25;5.90;99.90
33460;DHT22;19795;53.160;6.612;2024-03-08T10:27:51;6.40;99.80
33460;DHT22;19795;53.160;6.612;2024-03-08T10:30:17;6.40;99.40
33460;DHT22;19795;53.160;6.612;2024-03-08T10:32:47;6.20;99.90
33460;DHT22;19795;53.160;6.612;2024-03-08T10:35:13;6.40;99.80
33460;DHT22;19795;53.160;6.612;2024-03-08T10:37:48;6.60;99.80
33460;DHT22;19795;53.160;6.612;2024-03-08T10:40:35;7.10;98.90
33460;DHT22;19795;53.160;6.612;2024-03-08T10:43:06;6.90;99.40
33460;DHT22;19795;53.160;6.612;2024-03-08T10:45:38;6.80;98.70
33460;DHT22;19795;53.160;6.612;2024-03-08T10:48:30;6.70;98.70
33460;DHT22;19795;53.160;6.612;2024-03-08T10:51:00;6.70;98.80
33460;DHT22;19795;53.160;6.612;2024-03-08T10:53:27;6.70;98.80
33460;DHT22;19795;53.160;6.612;2024-03-08T10:55:56;6.90;98.90
33460;DHT22;19795;53.160;6.612;2024-03-08T10:58:24;7.10;98.80
33460;DHT22;19795;53.160;6.612;2024-03-08T11:00:55;7.20;98.50
33460;DHT22;19795;53.160;6.612;2024-03-08T11:08:57;7.80;98.30
33460;DHT22;19795;53.160;6.612;2024-03-08T11:11:31;8.30;97.00
33460;DHT22;19795;53.160;6.612;2024-03-08T11:13:58;8.50;97.80
33460;DHT22;19795;53.160;6.612;2024-03-08T11:19:44;8.10;96.80
33460;DHT22;19795;53.160;6.612;2024-03-08T11:21:43;7.90;97.30
33460;DHT22;19795;53.160;6.612;2024-03-08T11:24:12;8.10;96.50
33460;DHT22;19795;53.160;6.612;2024-03-08T11:26:42;7.80;97.00
33460;DHT22;19795;53.160;6.612;2024-03-08T11:32:17;8.10;97.80
33460;DHT22;19795;53.160;6.612;2024-03-08T11:34:47;8.60;96.40
33460;DHT22;19795;53.160;6.612;2024-03-08T11:37:20;8.50;96.00
33460;DHT22;19795;53.160;6.612;2024-03-08T11:39:50;8.60;96.20
33460;DHT22;19795;53.160;6.612;2024-03-08T11:42:17;9.00;96.80
33460;DHT22;19795;53.160;6.612;2024-03-08T11:44:46;9.30;95.40
33460;DHT22;19795;53.160;6.612;2024-03-08T11:47:14;8.90;95.50
33460;DHT22;19795;53.160;6.612;2024-03-08T11:49:40;8.90;95.70
33460;DHT22;19795;53.160;6.612;2024-03-08T11:52:16;8.90;96.00
33460;DHT22;19795;53.160;6.612;2024-03-08T11:54:47;9.20;95.60
33460;DHT22;19795;53.160;6.612;2024-03-08T11:57:18;9.20;95.50
33460;DHT22;19795;53.160;6.612;2024-03-08T11:59:53;9.10;95.90
33460;DHT22;19795;53.160;6.612;2024-03-08T12:02:19;9.10;95.60
33460;DHT22;19795;53.160;6.612;2024-03-08T12:04:45;9.20;96.70
33460;DHT22;19795;53.160;6.612;2024-03-08T12:07:11;9.60;94.90
33460;DHT22;19795;53.160;6.612;2024-03-08T12:09:38;9.20;95.10
33460;DHT22;19795;53.160;6.612;2024-03-08T12:12:06;9.20;95.70
33460;DHT22;19795;53.160;6.612;2024-03-08T12:14:33;8.90;95.30
33460;DHT22;19795;53.160;6.612;2024-03-08T12:16:59;9.10;95.60
33460;DHT22;19795;53.160;6.612;2024-03-08T12:19:27;9.20;95.10
33460;DHT22;19795;53.160;6.612;2024-03-08T12:21:54;9.10;95.10
33460;DHT22;19795;53.160;6.612;2024-03-08T12:24:20;9.30;95.20
33460;DHT22;19795;53.160;6.612;2024-03-08T12:26:47;9.60;94.80
33460;DHT22;19795;53.160;6.612;2024-03-08T12:29:25;9.80;95.40
33460;DHT22;19795;53.160;6.612;2024-03-08T12:31:54;9.80;94.60
33460;DHT22;19795;53.160;6.612;2024-03-08T12:34:21;9.70;94.30
33460;DHT22;19795;53.160;6.612;2024-03-08T12:36:48;9.40;94.70
33460;DHT22;19795;53.160;6.612;2024-03-08T12:39:19;9.50;94.50
33460;DHT22;19795;53.160;6.612;2024-03-08T12:42:03;9.50;94.60
33460;DHT22;19795;53.160;6.612;2024-03-08T12:44:29;9.70;94.60
33460;DHT22;19795;53.160;6.612;2024-03-08T12:46:55;9.80;94.50
33460;DHT22;19795;53.160;6.612;2024-03-08T12:49:20;9.90;94.70
33460;DHT22;19795;53.160;6.612;2024-03-08T12:51:49;10.00;94.10
33460;DHT22;19795;53.160;6.612;2024-03-08T12:54:15;10.10;94.20
33460;DHT22;19795;53.160;6.612;2024-03-08T12:56:40;10.30;94.50
33460;DHT22;19795;53.160;6.612;2024-03-08T12:59:07;10.30;94.10
33460;DHT22;19795;53.160;6.612;2024-03-08T13:01:34;10.50;94.10
33460;DHT22;19795;53.160;6.612;2024-03-08T13:04:03;10.90;93.80
33460;DHT22;19795;53.160;6.612;2024-03-08T13:06:29;10.90;93.30
33460;DHT22;19795;53.160;6.612;2024-03-08T13:08:56;10.70;93.00
33460;DHT22;19795;53.160;6.612;2024-03-08T13:11:23;10.40;93.50
33460;DHT22;19795;53.160;6.612;2024-03-08T13:13:49;10.50;94.00
33460;DHT22;19795;53.160;6.612;2024-03-08T13:16:15;10.80;93.60
33460;DHT22;19795;53.160;6.612;2024-03-08T13:18:43;10.80;93.40
33460;DHT22;19795;53.160;6.612;2024-03-08T13:21:09;10.90;92.90
33460;DHT22;19795;53.160;6.612;2024-03-08T13:23:37;10.80;93.30
33460;DHT22;19795;53.160;6.612;2024-03-08T13:26:09;10.80;93.00
33460;DHT22;19795;53.160;6.612;2024-03-08T13:28:37;10.80;92.60
33460;DHT22;19795;53.160;6.612;2024-03-08T13:31:06;11.00;92.50
33460;DHT22;19795;53.160;6.612;2024-03-08T13:33:36;11.00;92.10
33460;DHT22;19795;53.160;6.612;2024-03-08T13:36:08;11.20;92.30
33460;DHT22;19795;53.160;6.612;2024-03-08T13:38:49;10.90;92.50
33460;DHT22;19795;53.160;6.612;2024-03-08T13:41:16;10.80;92.50
33460;DHT22;19795;53.160;6.612;2024-03-08T13:43:46;10.80;92.80
33460;DHT22;19795;53.160;6.612;2024-03-08T13:46:12;10.90;92.70
33460;DHT22;19795;53.160;6.612;2024-03-08T13:48:38;10.80;92.60
33460;DHT22;19795;53.160;6.612;2024-03-08T13:51:05;10.50;92.70
33460;DHT22;19795;53.160;6.612;2024-03-08T13:53:35;10.40;92.70
33460;DHT22;19795;53.160;6.612;2024-03-08T13:56:02;10.10;92.80
33460;DHT22;19795;53.160;6.612;2024-03-08T13:58:28;9.70;93.70
33460;DHT22;19795;53.160;6.612;2024-03-08T14:00:54;9.50;93.70
33460;DHT22;19795;53.160;6.612;2024-03-08T14:03:21;9.40;94.70
33460;DHT22;19795;53.160;6.612;2024-03-08T14:05:46;9.50;93.90
33460;DHT22;19795;53.160;6.612;2024-03-08T14:08:12;9.40;94.00
33460;DHT22;19795;53.160;6.612;2024-03-08T14:10:39;9.30;93.90
33460;DHT22;19795;53.160;6.612;2024-03-08T14:13:05;9.30;94.90
33460;DHT22;19795;53.160;6.612;2024-03-08T14:15:32;9.40;94.00
33460;DHT22;19795;53.160;6.612;2024-03-08T14:17:59;9.40;93.80
33460;DHT22;19795;53.160;6.612;2024-03-08T14:20:25;9.20;93.80
33460;DHT22;19795;53.160;6.612;2024-03-08T14:22:54;9.10;93.60
33460;DHT22;19795;53.160;6.612;2024-03-08T14:25:23;9.00;94.30
33460;DHT22;19795;53.160;6.612;2024-03-08T14:27:53;9.10;93.80
33460;DHT22;19795;53.160;6.612;2024-03-08T14:30:20;9.10;93.90
33460;DHT22;19795;53.160;6.612;2024-03-08T14:33:02;9.30;93.50
33460;DHT22;19795;53.160;6.612;2024-03-08T14:35:28;9.40;94.00
33460;DHT22;19795;53.160;6.612;2024-03-08T14:37:58;9.50;93.70
33460;DHT22;19795;53.160;6.612;2024-03-08T14:40:27;9.20;94.20
33460;DHT22;19795;53.160;6.612;2024-03-08T14:42:53;9.40;93.70
33460;DHT22;19795;53.160;6.612;2024-03-08T14:45:19;9.40;93.60
33460;DHT22;19795;53.160;6.612;2024-03-08T14:47:48;9.40;93.10
33460;DHT22;19795;53.160;6.612;2024-03-08T14:50:21;9.40;93.40
33460;DHT22;19795;53.160;6.612;2024-03-08T14:52:49;9.50;93.10
33460;DHT22;19795;53.160;6.612;2024-03-08T14:55:16;9.50;92.70
33460;DHT22;19795;53.160;6.612;2024-03-08T14:57:42;9.50;92.80
33460;DHT22;19795;53.160;6.612;2024-03-08T15:00:12;9.50;92.60
33460;DHT22;19795;53.160;6.612;2024-03-08T15:02:59;9.70;92.70
33460;DHT22;19795;53.160;6.612;2024-03-08T15:05:25;10.00;92.40
33460;DHT22;19795;53.160;6.612;2024-03-08T15:08:00;10.00;92.30
33460;DHT22;19795;53.160;6.612;2024-03-08T15:10:26;9.90;92.50
33460;DHT22;19795;53.160;6.612;2024-03-08T15:12:54;10.00;92.60
33460;DHT22;19795;53.160;6.612;2024-03-08T15:15:21;9.80;92.20
33460;DHT22;19795;53.160;6.612;2024-03-08T15:17:50;9.60;92.60
33460;DHT22;19795;53.160;6.612;2024-03-08T15:20:16;9.70;92.60
33460;DHT22;19795;53.160;6.612;2024-03-08T15:22:49;9.90;92.30
33460;DHT22;19795;53.160;6.612;2024-03-08T15:25:15;9.80;92.30
33460;DHT22;19795;53.160;6.612;2024-03-08T15:27:54;9.50;92.80
33460;DHT22;19795;53.160;6.612;2024-03-08T15:30:26;9.50;92.80
33460;DHT22;19795;53.160;6.612;2024-03-08T15:33:01;9.40;92.70
33460;DHT22;19795;53.160;6.612;2024-03-08T15:35:28;9.10;93.40
33460;DHT22;19795;53.160;6.612;2024-03-08T15:37:54;8.70;94.00
33460;DHT22;19795;53.160;6.612;2024-03-08T15:40:23;8.70;93.80
33460;DHT22;19795;53.160;6.612;2024-03-08T15:45:20;8.50;94.40
33460;DHT22;19795;53.160;6.612;2024-03-08T15:47:45;8.40;94.40
33460;DHT22;19795;53.160;6.612;2024-03-08T15:50:12;8.20;94.50
33460;DHT22;19795;53.160;6.612;2024-03-08T15:52:39;8.20;94.90
33460;DHT22;19795;53.160;6.612;2024-03-08T15:55:07;8.10;94.50
33460;DHT22;19795;53.160;6.612;2024-03-08T15:57:32;8.00;95.00
33460;DHT22;19795;53.160;6.612;2024-03-08T15:59:58;7.90;95.60
33460;DHT22;19795;53.160;6.612;2024-03-08T16:02:26;7.90;95.90
33460;DHT22;19795;53.160;6.612;2024-03-08T16:04:53;7.90;96.10
33460;DHT22;19795;53.160;6.612;2024-03-08T16:07:20;7.80;95.70
33460;DHT22;19795;53.160;6.612;2024-03-08T16:09:45;7.80;95.70
33460;DHT22;19795;53.160;6.612;2024-03-08T16:12:11;7.80;95.80
33460;DHT22;19795;53.160;6.612;2024-03-08T16:14:39;7.70;95.60
33460;DHT22;19795;53.160;6.612;2024-03-08T16:17:05;7.70;95.80
33460;DHT22;19795;53.160;6.612;2024-03-08T16:19:30;7.70;96.10
33460;DHT22;19795;53.160;6.612;2024-03-08T16:21:56;7.60;96.30
33460;DHT22;19795;53.160;6.612;2024-03-08T16:24:23;7.60;95.70
33460;DHT22;19795;53.160;6.612;2024-03-08T16:26:49;7.60;96.00
33460;DHT22;19795;53.160;6.612;2024-03-08T16:29:15;7.50;96.00
33460;DHT22;19795;53.160;6.612;2024-03-08T16:31:42;7.50;95.90
33460;DHT22;19795;53.160;6.612;2024-03-08T16:34:11;7.50;96.10
33460;DHT22;19795;53.160;6.612;2024-03-08T16:36:37;7.40;95.80
33460;DHT22;19795;53.160;6.612;2024-03-08T16:39:05;7.50;95.90
33460;DHT22;19795;53.160;6.612;2024-03-08T16:41:31;7.50;96.10
33460;DHT22;19795;53.160;6.612;2024-03-08T16:43:57;7.40;96.30
33460;DHT22;19795;53.160;6.612;2024-03-08T16:46:23;7.40;96.70
33460;DHT22;19795;53.160;6.612;2024-03-08T16:48:49;7.30;96.80
33460;DHT22;19795;53.160;6.612;2024-03-08T16:51:14;7.20;96.30
33460;DHT22;19795;53.160;6.612;2024-03-08T16:53:40;7.30;96.40
33460;DHT22;19795;53.160;6.612;2024-03-08T16:56:07;7.20;96.60
33460;DHT22;19795;53.160;6.612;2024-03-08T16:58:37;7.10;96.80
33460;DHT22;19795;53.160;6.612;2024-03-08T17:01:03;7.10;97.10
33460;DHT22;19795;53.160;6.612;2024-03-08T17:03:29;7.00;97.10
33460;DHT22;19795;53.160;6.612;2024-03-08T17:05:57;7.00;97.30
33460;DHT22;19795;53.160;6.612;2024-03-08T17:08:25;7.00;97.30
33460;DHT22;19795;53.160;6.612;2024-03-08T17:10:54;6.90;97.70
33460;DHT22;19795;53.160;6.612;2024-03-08T17:13:20;6.60;97.70
33460;DHT22;19795;53.160;6.612;2024-03-08T17:15:49;6.80;98.00
33460;DHT22;19795;53.160;6.612;2024-03-08T17:18:39;6.70;98.00
33460;DHT22;19795;53.160;6.612;2024-03-08T17:21:15;6.60;98.40
33460;DHT22;19795;53.160;6.612;2024-03-08T17:23:44;6.60;98.80
33460;DHT22;19795;53.160;6.612;2024-03-08T17:26:13;6.40;99.10
33460;DHT22;19795;53.160;6.612;2024-03-08T17:28:41;6.30;99.20
33460;DHT22;19795;53.160;6.612;2024-03-08T17:31:08;6.30;99.20
33460;DHT22;19795;53.160;6.612;2024-03-08T17:33:39;6.30;99.20
33460;DHT22;19795;53.160;6.612;2024-03-08T17:36:09;6.30;99.40
33460;DHT22;19795;53.160;6.612;2024-03-08T17:38:37;6.30;99.40
33460;DHT22;19795;53.160;6.612;2024-03-08T17:41:10;6.30;99.40
33460;DHT22;19795;53.160;6.612;2024-03-08T17:43:39;6.20;99.60
33460;DHT22;19795;53.160;6.612;2024-03-08T17:46:06;6.20;99.80
33460;DHT22;19795;53.160;6.612;2024-03-08T17:48:33;6.20;99.90
33460;DHT22;19795;53.160;6.612;2024-03-08T17:50:59;6.10;99.90
33460;DHT22;19795;53.160;6.612;2024-03-08T17:53:27;6.10;99.90
33460;DHT22;19795;53.160;6.612;2024-03-08T17:55:56;6.00;99.90
33460;DHT22;19795;53.160;6.612;2024-03-08T17:58:22;5.90;99.90
33460;DHT22;19795;53.160;6.612;2024-03-08T18:00:48;5.90;99.90
33460;DHT22;19795;53.160;6.612;2024-03-08T18:03:16;5.80;99.90
33460;DHT22;19795;53.160;6.612;2024-03-08T18:05:44;5.80;99.90
33460;DHT22;19795;53.160;6.612;2024-03-08T18:08:10;5.70;99.90
33460;DHT22;19795;53.160;6.612;2024-03-08T18:10:39;5.80;99.90
33460;DHT22;19795;53.160;6.612;2024-03-08T18:13:05;5.90;99.90
33460;DHT22;19795;53.160;6.612;2024-03-08T18:15:59;5.80;99.90
33460;DHT22;19795;53.160;6.612;2024-03-08T18:18:25;5.80;99.90
33460;DHT22;19795;53.160;6.612;2024-03-08T18:20:53;5.80;99.90
33460;DHT22;19795;53.160;6.612;2024-03-08T18:23:18;5.70;99.90
33460;DHT22;19795;53.160;6.612;2024-03-08T18:25:47;5.70;99.90
33460;DHT22;19795;53.160;6.612;2024-03-08T18:28:17;5.80;99.90
33460;DHT22;19795;53.160;6.612;2024-03-08T19:40:41;5.20;99.90
33460;DHT22;19795;53.160;6.612;2024-03-08T19:43:08;5.20;99.90
33460;DHT22;19795;53.160;6.612;2024-03-08T19:45:37;5.20;99.90
33460;DHT22;19795;53.160;6.612;2024-03-08T19:48:05;5.20;99.90
33460;DHT22;19795;53.160;6.612;2024-03-08T19:50:34;5.20;99.90
33460;DHT22;19795;53.160;6.612;2024-03-08T19:53:07;5.20;99.90
33460;DHT22;19795;53.160;6.612;2024-03-08T19:55:34;5.20;99.90
33460;DHT22;19795;53.160;6.612;2024-03-08T19:58:01;5.20;99.90
33460;DHT22;19795;53.160;6.612;2024-03-08T20:00:28;5.10;99.90
33460;DHT22;19795;53.160;6.612;2024-03-08T20:02:57;5.10;99.90
33460;DHT22;19795;53.160;6.612;2024-03-08T20:05:27;5.00;99.90
33460;DHT22;19795;53.160;6.612;2024-03-08T20:07:53;4.90;99.90
33460;DHT22;19795;53.160;6.612;2024-03-08T20:10:23;4.90;99.90
33460;DHT22;19795;53.160;6.612;2024-03-08T20:12:50;4.90;99.90
33460;DHT22;19795;53.160;6.612;2024-03-08T20:15:17;4.90;99.90
33460;DHT22;19795;53.160;6.612;2024-03-08T20:17:45;4.90;99.90
33460;DHT22;19795;53.160;6.612;2024-03-08T20:20:13;4.90;99.90
33460;DHT22;19795;53.160;6.612;2024-03-08T20:22:42;4.80;99.90
33460;DHT22;19795;53.160;6.612;2024-03-08T20:25:15;4.80;99.90
33460;DHT22;19795;53.160;6.612;2024-03-08T20:27:54;4.90;99.90
33460;DHT22;19795;53.160;6.612;2024-03-08T20:30:26;4.80;99.90
33460;DHT22;19795;53.160;6.612;2024-03-08T20:32:56;4.80;99.90
33460;DHT22;19795;53.160;6.612;2024-03-08T20:35:26;4.80;99.90
33460;DHT22;19795;53.160;6.612;2024-03-08T20:37:54;4.90;99.90
33460;DHT22;19795;53.160;6.612;2024-03-08T20:40:29;4.90;99.90
33460;DHT22;19795;53.160;6.612;2024-03-08T20:43:10;4.90;99.90
33460;DHT22;19795;53.160;6.612;2024-03-08T20:45:39;4.90;99.90
33460;DHT22;19795;53.160;6.612;2024-03-08T20:48:05;4.90;99.90
33460;DHT22;19795;53.160;6.612;2024-03-08T20:50:32;4.90;99.90
33460;DHT22;19795;53.160;6.612;2024-03-08T20:53:05;4.80;99.90
33460;DHT22;19795;53.160;6.612;2024-03-08T20:55:36;4.80;99.90
33460;DHT22;19795;53.160;6.612;2024-03-08T20:58:05;4.90;99.90
33460;DHT22;19795;53.160;6.612;2024-03-08T21:00:31;4.80;99.90
33460;DHT22;19795;53.160;6.612;2024-03-08T21:03:09;4.70;99.90
33460;DHT22;19795;53.160;6.612;2024-03-08T21:05:39;4.80;99.90
33460;DHT22;19795;53.160;6.612;2024-03-08T21:08:07;4.80;99.90
